sensor_id;sensor_type;location;lat;lon;timestamp;noise_LAeq;noise_LA_min;noise_LA_max;noise_LA01;noise_LA95
64996;Laerm;51545;51.568;6.998;2023-07-13T00:02:08;41.51;35.90;54.20;;
64996;Laerm;51545;51.568;6.998;2023-07-13T00:04:34;41.18;35.22;45.88;;
64996;Laerm;51545;51.568;6.998;2023-07-13T00:07:00;40.42;35.58;46.11;;
64996;Laerm;51545;51.568;6.998;2023-07-13T00:09:25;38.90;34.67;51.68;;
64996;Laerm;51545;51.568;6.998;2023-07-13T00:11:57;40.33;35.63;47.46;;
64996;Laerm;51545;51.568;6.998;2023-07-13T00:14:24;41.04;34.12;51.99;;
64996;Laerm;51545;51.568;6.998;2023-07-13T00:16:50;38.98;34.11;45.77;;
64996;Laerm;51545;51.568;6.998;2023-07-13T00:19:16;39.42;35.37;47.33;;
64996;Laerm;51545;51.568;6.998;2023-07-13T00:21:42;38.74;33.35;47.84;;
64996;Laerm;51545;51.568;6.998;2023-07-13T00:24:11;40.18;35.35;46.36;;
64996;Laerm;51545;51.568;6.998;2023-07-13T00:26:41;39.51;34.53;45.83;;
64996;Laerm;51545;51.568;6.998;2023-07-13T00:29:10;40.07;35.26;47.63;;
64996;Laerm;51545;51.568;6.998;2023-07-13T00:31:35;39.82;33.89;45.14;;
64996;Laerm;51545;51.568;6.998;2023-07-13T00:34:01;40.30;35.27;46.13;;
64996;Laerm;51545;51.568;6.998;2023-07-13T00:36:27;40.28;35.81;47.38;;
64996;Laerm;51545;51.568;6.998;2023-07-13T00:38:53;39.02;35.23;45.17;;
64996;Laerm;51545;51.568;6.998;2023-07-13T00:41:19;43.00;37.81;52.21;;
64996;Laerm;51545;51.568;6.998;2023-07-13T00:43:44;39.36;34.13;44.90;;
64996;Laerm;51545;51.568;6.998;2023-07-13T00:48:48;42.50;37.57;54.12;;
64996;Laerm;51545;51.568;6.998;2023-07-13T00:51:17;41.16;33.34;65.12;;
64996;Laerm;51545;51.568;6.998;2023-07-13T00:53:44;39.20;34.86;45.10;;
64996;Laerm;51545;51.568;6.998;2023-07-13T00:56:10;39.61;34.53;48.78;;
64996;Laerm;51545;51.568;6.998;2023-07-13T00:58:36;41.85;35.92;62.07;;
64996;Laerm;51545;51.568;6.998;2023-07-13T01:01:01;38.92;32.55;48.53;;
64996;Laerm;51545;51.568;6.998;2023-07-13T01:03:27;39.73;34.85;48.00;;
64996;Laerm;51545;51.568;6.998;2023-07-13T01:05:53;39.89;35.37;47.80;;
64996;Laerm;51545;51.568;6.998;2023-07-13T01:08:20;40.51;35.85;49.09;;
64996;Laerm;51545;51.568;6.998;2023-07-13T01:10:54;39.89;35.00;45.69;;
64996;Laerm;51545;51.568;6.998;2023-07-13T01:13:19;40.38;35.38;48.53;;
64996;Laerm;51545;51.568;6.998;2023-07-13T01:15:47;40.88;36.38;47.81;;
64996;Laerm;51545;51.568;6.998;2023-07-13T01:18:19;40.77;35.29;49.94;;
64996;Laerm;51545;51.568;6.998;2023-07-13T01:20:50;40.34;36.21;55.20;;
64996;Laerm;51545;51.568;6.998;2023-07-13T01:23:16;40.62;36.22;48.55;;
64996;Laerm;51545;51.568;6.998;2023-07-13T01:25:42;41.22;36.61;47.56;;
64996;Laerm;51545;51.568;6.998;2023-07-13T01:28:08;41.39;36.08;48.26;;
64996;Laerm;51545;51.568;6.998;2023-07-13T01:30:38;40.60;34.87;48.11;;
64996;Laerm;51545;51.568;6.998;2023-07-13T01:33:06;41.36;36.89;46.32;;
64996;Laerm;51545;51.568;6.998;2023-07-13T01:35:33;41.53;36.47;47.03;;
64996;Laerm;51545;51.568;6.998;2023-07-13T01:37:59;41.56;36.61;48.14;;
64996;Laerm;51545;51.568;6.998;2023-07-13T01:40:27;41.25;37.05;48.48;;
64996;Laerm;51545;51.568;6.998;2023-07-13T01:42:52;41.26;35.78;54.48;;
64996;Laerm;51545;51.568;6.998;2023-07-13T01:45:18;42.11;37.34;49.19;;
64996;Laerm;51545;51.568;6.998;2023-07-13T01:47:43;41.98;37.89;64.13;;
64996;Laerm;51545;51.568;6.998;2023-07-13T01:50:09;42.54;35.98;49.43;;
64996;Laerm;51545;51.568;6.998;2023-07-13T01:52:35;41.42;36.62;46.49;;
64996;Laerm;51545;51.568;6.998;2023-07-13T01:55:00;40.97;36.38;46.97;;
64996;Laerm;51545;51.568;6.998;2023-07-13T01:57:25;42.32;36.87;57.75;;
64996;Laerm;51545;51.568;6.998;2023-07-13T01:59:51;40.56;34.90;49.03;;
64996;Laerm;51545;51.568;6.998;2023-07-13T02:02:16;41.88;35.93;52.86;;
64996;Laerm;51545;51.568;6.998;2023-07-13T02:04:42;41.83;37.41;48.06;;
64996;Laerm;51545;51.568;6.998;2023-07-13T02:07:08;41.24;36.27;46.09;;
64996;Laerm;51545;51.568;6.998;2023-07-13T02:09:34;45.20;38.79;52.39;;
64996;Laerm;51545;51.568;6.998;2023-07-13T02:12:00;42.75;38.56;47.74;;
64996;Laerm;51545;51.568;6.998;2023-07-13T02:14:26;42.06;36.75;60.75;;
64996;Laerm;51545;51.568;6.998;2023-07-13T02:16:51;41.97;37.04;48.09;;
64996;Laerm;51545;51.568;6.998;2023-07-13T02:19:16;42.21;37.69;46.83;;
64996;Laerm;51545;51.568;6.998;2023-07-13T02:21:42;41.95;37.91;52.82;;
64996;Laerm;51545;51.568;6.998;2023-07-13T02:24:08;41.93;37.40;52.29;;
64996;Laerm;51545;51.568;6.998;2023-07-13T02:26:34;41.25;37.38;46.85;;
64996;Laerm;51545;51.568;6.998;2023-07-13T02:29:01;42.15;36.62;47.50;;
64996;Laerm;51545;51.568;6.998;2023-07-13T02:31:26;42.86;39.65;50.35;;
64996;Laerm;51545;51.568;6.998;2023-07-13T02:33:52;43.17;38.78;51.66;;
64996;Laerm;51545;51.568;6.998;2023-07-13T02:36:17;43.97;39.33;58.64;;
64996;Laerm;51545;51.568;6.998;2023-07-13T02:38:44;44.85;39.24;54.33;;
64996;Laerm;51545;51.568;6.998;2023-07-13T02:41:09;44.89;39.86;54.41;;
64996;Laerm;51545;51.568;6.998;2023-07-13T02:43:37;43.66;39.37;49.88;;
64996;Laerm;51545;51.568;6.998;2023-07-13T02:46:02;44.08;39.20;49.34;;
64996;Laerm;51545;51.568;6.998;2023-07-13T02:48:33;44.61;40.59;51.74;;
64996;Laerm;51545;51.568;6.998;2023-07-13T02:50:59;45.22;38.90;61.08;;
64996;Laerm;51545;51.568;6.998;2023-07-13T02:53:26;44.52;39.84;51.51;;
64996;Laerm;51545;51.568;6.998;2023-07-13T02:55:52;43.54;39.70;49.78;;
64996;Laerm;51545;51.568;6.998;2023-07-13T02:58:18;43.82;38.68;50.82;;
64996;Laerm;51545;51.568;6.998;2023-07-13T03:00:46;44.20;39.91;53.13;;
64996;Laerm;51545;51.568;6.998;2023-07-13T03:03:13;44.26;40.30;53.93;;
64996;Laerm;51545;51.568;6.998;2023-07-13T03:05:43;44.95;41.17;57.00;;
64996;Laerm;51545;51.568;6.998;2023-07-13T03:08:11;45.39;42.13;54.90;;
64996;Laerm;51545;51.568;6.998;2023-07-13T03:10:37;45.47;41.49;55.77;;
64996;Laerm;51545;51.568;6.998;2023-07-13T03:13:05;46.87;43.14;53.81;;
64996;Laerm;51545;51.568;6.998;2023-07-13T03:15:31;45.39;41.37;49.04;;
64996;Laerm;51545;51.568;6.998;2023-07-13T03:17:56;45.82;41.74;53.18;;
64996;Laerm;51545;51.568;6.998;2023-07-13T03:20:22;46.34;42.06;50.20;;
64996;Laerm;51545;51.568;6.998;2023-07-13T03:22:48;47.66;44.35;55.51;;
64996;Laerm;51545;51.568;6.998;2023-07-13T03:25:14;48.55;43.46;58.96;;
64996;Laerm;51545;51.568;6.998;2023-07-13T03:27:40;48.72;43.25;62.41;;
64996;Laerm;51545;51.568;6.998;2023-07-13T03:30:06;47.05;43.45;54.80;;
64996;Laerm;51545;51.568;6.998;2023-07-13T03:32:32;46.70;42.40;56.48;;
64996;Laerm;51545;51.568;6.998;2023-07-13T03:34:58;47.00;42.94;55.19;;
64996;Laerm;51545;51.568;6.998;2023-07-13T03:37:23;46.72;42.60;53.63;;
64996;Laerm;51545;51.568;6.998;2023-07-13T03:39:50;46.09;41.80;52.11;;
64996;Laerm;51545;51.568;6.998;2023-07-13T03:42:16;53.24;43.29;75.77;;
64996;Laerm;51545;51.568;6.998;2023-07-13T03:44:43;46.66;42.71;65.92;;
64996;Laerm;51545;51.568;6.998;2023-07-13T03:47:17;46.32;42.87;52.29;;
64996;Laerm;51545;51.568;6.998;2023-07-13T03:49:43;46.35;42.84;54.48;;
64996;Laerm;51545;51.568;6.998;2023-07-13T03:52:09;45.93;42.15;51.32;;
64996;Laerm;51545;51.568;6.998;2023-07-13T03:54:35;45.95;41.99;57.94;;
64996;Laerm;51545;51.568;6.998;2023-07-13T03:57:02;46.47;41.63;59.34;;
64996;Laerm;51545;51.568;6.998;2023-07-13T03:59:32;46.52;42.85;53.25;;
64996;Laerm;51545;51.568;6.998;2023-07-13T04:02:01;45.90;41.29;55.20;;
64996;Laerm;51545;51.568;6.998;2023-07-13T04:04:29;46.37;41.35;55.15;;
64996;Laerm;51545;51.568;6.998;2023-07-13T04:06:56;46.46;42.51;53.82;;
64996;Laerm;51545;51.568;6.998;2023-07-13T04:09:25;45.67;42.32;50.32;;
64996;Laerm;51545;51.568;6.998;2023-07-13T04:11:51;46.37;42.43;54.47;;
64996;Laerm;51545;51.568;6.998;2023-07-13T04:14:16;46.77;43.08;52.55;;
64996;Laerm;51545;51.568;6.998;2023-07-13T04:16:43;46.25;42.73;53.74;;
64996;Laerm;51545;51.568;6.998;2023-07-13T04:19:10;46.70;42.91;57.32;;
64996;Laerm;51545;51.568;6.998;2023-07-13T04:21:36;46.04;42.31;50.92;;
64996;Laerm;51545;51.568;6.998;2023-07-13T04:24:03;45.77;42.31;50.23;;
64996;Laerm;51545;51.568;6.998;2023-07-13T04:26:29;46.64;42.90;54.31;;
64996;Laerm;51545;51.568;6.998;2023-07-13T04:28:56;45.63;41.77;52.04;;
64996;Laerm;51545;51.568;6.998;2023-07-13T04:31:23;45.88;42.40;56.79;;
64996;Laerm;51545;51.568;6.998;2023-07-13T04:33:49;45.68;41.56;57.97;;
64996;Laerm;51545;51.568;6.998;2023-07-13T04:36:16;45.76;41.40;50.63;;
64996;Laerm;51545;51.568;6.998;2023-07-13T04:38:42;46.72;42.42;61.03;;
64996;Laerm;51545;51.568;6.998;2023-07-13T04:41:08;47.90;41.85;58.86;;
64996;Laerm;51545;51.568;6.998;2023-07-13T04:43:35;47.12;42.56;55.37;;
64996;Laerm;51545;51.568;6.998;2023-07-13T04:46:10;46.90;42.39;58.29;;
64996;Laerm;51545;51.568;6.998;2023-07-13T04:48:36;47.64;42.88;59.33;;
64996;Laerm;51545;51.568;6.998;2023-07-13T04:51:04;49.36;43.16;62.85;;
64996;Laerm;51545;51.568;6.998;2023-07-13T04:53:31;47.67;42.88;61.84;;
64996;Laerm;51545;51.568;6.998;2023-07-13T04:55:58;46.49;42.21;60.51;;
64996;Laerm;51545;51.568;6.998;2023-07-13T04:58:24;48.37;42.29;71.90;;
64996;Laerm;51545;51.568;6.998;2023-07-13T05:00:51;45.76;41.83;59.99;;
64996;Laerm;51545;51.568;6.998;2023-07-13T05:03:16;48.67;43.73;59.82;;
64996;Laerm;51545;51.568;6.998;2023-07-13T05:05:42;45.61;41.76;51.27;;
64996;Laerm;51545;51.568;6.998;2023-07-13T05:08:09;47.72;42.29;59.23;;
64996;Laerm;51545;51.568;6.998;2023-07-13T05:10:35;46.44;42.32;57.24;;
64996;Laerm;51545;51.568;6.998;2023-07-13T05:13:01;47.69;43.14;58.01;;
64996;Laerm;51545;51.568;6.998;2023-07-13T05:15:27;48.47;42.04;59.27;;
64996;Laerm;51545;51.568;6.998;2023-07-13T05:17:53;46.19;41.44;54.42;;
64996;Laerm;51545;51.568;6.998;2023-07-13T05:20:19;47.91;43.15;56.00;;
64996;Laerm;51545;51.568;6.998;2023-07-13T05:22:46;47.88;43.41;65.68;;
64996;Laerm;51545;51.568;6.998;2023-07-13T05:25:13;45.93;42.12;59.86;;
64996;Laerm;51545;51.568;6.998;2023-07-13T05:27:39;47.52;43.63;52.51;;
64996;Laerm;51545;51.568;6.998;2023-07-13T05:30:05;46.81;43.31;62.39;;
64996;Laerm;51545;51.568;6.998;2023-07-13T05:32:31;45.84;41.88;51.48;;
64996;Laerm;51545;51.568;6.998;2023-07-13T05:34:57;46.58;43.03;63.16;;
64996;Laerm;51545;51.568;6.998;2023-07-13T05:37:22;47.37;43.31;60.95;;
64996;Laerm;51545;51.568;6.998;2023-07-13T05:39:48;50.07;42.75;74.55;;
64996;Laerm;51545;51.568;6.998;2023-07-13T05:42:14;46.61;41.27;66.86;;
64996;Laerm;51545;51.568;6.998;2023-07-13T05:44:40;46.60;43.21;62.97;;
64996;Laerm;51545;51.568;6.998;2023-07-13T05:47:05;45.50;41.93;65.97;;
64996;Laerm;51545;51.568;6.998;2023-07-13T05:49:31;45.92;42.65;60.36;;
64996;Laerm;51545;51.568;6.998;2023-07-13T05:51:57;46.17;41.87;52.52;;
64996;Laerm;51545;51.568;6.998;2023-07-13T05:54:22;46.15;41.91;57.49;;
64996;Laerm;51545;51.568;6.998;2023-07-13T05:56:48;48.47;42.59;64.72;;
64996;Laerm;51545;51.568;6.998;2023-07-13T05:59:13;47.30;42.90;67.79;;
64996;Laerm;51545;51.568;6.998;2023-07-13T06:01:39;47.41;43.33;65.29;;
64996;Laerm;51545;51.568;6.998;2023-07-13T06:04:04;47.63;43.45;62.47;;
64996;Laerm;51545;51.568;6.998;2023-07-13T06:06:30;46.89;43.09;56.25;;
64996;Laerm;51545;51.568;6.998;2023-07-13T06:08:55;49.11;42.06;64.51;;
64996;Laerm;51545;51.568;6.998;2023-07-13T06:11:24;50.08;42.70;71.19;;
64996;Laerm;51545;51.568;6.998;2023-07-13T06:13:51;49.08;41.97;62.94;;
64996;Laerm;51545;51.568;6.998;2023-07-13T06:16:17;47.28;43.61;64.78;;
64996;Laerm;51545;51.568;6.998;2023-07-13T06:18:47;46.17;42.17;62.24;;
64996;Laerm;51545;51.568;6.998;2023-07-13T06:21:16;45.03;41.62;53.80;;
64996;Laerm;51545;51.568;6.998;2023-07-13T06:23:45;45.52;41.96;55.68;;
64996;Laerm;51545;51.568;6.998;2023-07-13T06:26:13;46.09;40.95;69.59;;
64996;Laerm;51545;51.568;6.998;2023-07-13T06:28:39;46.73;41.75;67.72;;
64996;Laerm;51545;51.568;6.998;2023-07-13T06:31:10;50.55;42.16;76.28;;
64996;Laerm;51545;51.568;6.998;2023-07-13T06:33:37;46.51;41.96;56.31;;
64996;Laerm;51545;51.568;6.998;2023-07-13T06:36:04;46.51;42.64;60.76;;
64996;Laerm;51545;51.568;6.998;2023-07-13T06:38:30;46.64;42.28;55.72;;
64996;Laerm;51545;51.568;6.998;2023-07-13T06:40:55;45.49;41.10;64.57;;
64996;Laerm;51545;51.568;6.998;2023-07-13T06:43:21;46.07;42.62;54.89;;
64996;Laerm;51545;51.568;6.998;2023-07-13T06:45:48;47.29;43.59;59.71;;
64996;Laerm;51545;51.568;6.998;2023-07-13T06:48:16;47.26;42.60;60.56;;
64996;Laerm;51545;51.568;6.998;2023-07-13T06:50:42;47.33;42.70;60.45;;
64996;Laerm;51545;51.568;6.998;2023-07-13T06:53:09;46.15;42.64;53.39;;
64996;Laerm;51545;51.568;6.998;2023-07-13T06:55:34;45.98;42.01;52.09;;
64996;Laerm;51545;51.568;6.998;2023-07-13T06:58:00;44.34;40.79;49.28;;
64996;Laerm;51545;51.568;6.998;2023-07-13T07:00:25;44.47;40.42;50.44;;
64996;Laerm;51545;51.568;6.998;2023-07-13T07:02:51;46.54;42.21;58.76;;
64996;Laerm;51545;51.568;6.998;2023-07-13T07:05:16;46.58;41.75;55.50;;
64996;Laerm;51545;51.568;6.998;2023-07-13T07:07:42;46.77;41.97;62.07;;
64996;Laerm;51545;51.568;6.998;2023-07-13T07:10:08;46.33;41.53;54.22;;
64996;Laerm;51545;51.568;6.998;2023-07-13T07:12:33;45.17;41.98;57.52;;
64996;Laerm;51545;51.568;6.998;2023-07-13T07:14:58;45.78;41.81;51.76;;
64996;Laerm;51545;51.568;6.998;2023-07-13T07:17:24;47.32;42.04;67.41;;
64996;Laerm;51545;51.568;6.998;2023-07-13T07:19:51;46.43;41.54;66.26;;
64996;Laerm;51545;51.568;6.998;2023-07-13T07:22:20;45.04;40.89;56.06;;
64996;Laerm;51545;51.568;6.998;2023-07-13T07:24:45;46.57;41.39;60.60;;
64996;Laerm;51545;51.568;6.998;2023-07-13T07:27:11;45.70;41.16;54.40;;
64996;Laerm;51545;51.568;6.998;2023-07-13T07:29:36;46.93;42.42;65.30;;
64996;Laerm;51545;51.568;6.998;2023-07-13T07:32:02;50.90;42.82;78.62;;
64996;Laerm;51545;51.568;6.998;2023-07-13T07:34:27;47.18;42.08;58.65;;
64996;Laerm;51545;51.568;6.998;2023-07-13T07:36:53;46.84;43.18;52.79;;
64996;Laerm;51545;51.568;6.998;2023-07-13T07:39:19;53.74;43.19;67.61;;
64996;Laerm;51545;51.568;6.998;2023-07-13T07:41:44;53.81;43.60;64.50;;
64996;Laerm;51545;51.568;6.998;2023-07-13T07:44:09;55.21;41.34;63.85;;
64996;Laerm;51545;51.568;6.998;2023-07-13T07:46:35;51.47;41.38;62.45;;
64996;Laerm;51545;51.568;6.998;2023-07-13T07:49:01;45.41;41.42;54.68;;
64996;Laerm;51545;51.568;6.998;2023-07-13T07:51:26;47.37;42.01;65.78;;
64996;Laerm;51545;51.568;6.998;2023-07-13T07:53:52;45.25;41.08;55.47;;
64996;Laerm;51545;51.568;6.998;2023-07-13T07:56:17;56.64;42.18;63.40;;
64996;Laerm;51545;51.568;6.998;2023-07-13T07:58:43;60.35;54.19;64.68;;
64996;Laerm;51545;51.568;6.998;2023-07-13T08:01:09;54.94;41.63;64.39;;
64996;Laerm;51545;51.568;6.998;2023-07-13T08:03:35;58.45;42.29;63.35;;
64996;Laerm;51545;51.568;6.998;2023-07-13T08:06:01;56.29;41.93;67.52;;
64996;Laerm;51545;51.568;6.998;2023-07-13T08:08:26;55.56;43.97;66.56;;
64996;Laerm;51545;51.568;6.998;2023-07-13T08:10:52;47.21;41.39;67.44;;
64996;Laerm;51545;51.568;6.998;2023-07-13T08:13:18;44.79;39.91;61.31;;
64996;Laerm;51545;51.568;6.998;2023-07-13T08:15:43;47.41;41.22;68.54;;
64996;Laerm;51545;51.568;6.998;2023-07-13T08:18:09;67.76;42.96;81.09;;
64996;Laerm;51545;51.568;6.998;2023-07-13T08:20:38;67.93;54.96;89.92;;
64996;Laerm;51545;51.568;6.998;2023-07-13T08:23:03;63.71;43.68;77.15;;
64996;Laerm;51545;51.568;6.998;2023-07-13T08:25:29;66.52;41.83;77.06;;
64996;Laerm;51545;51.568;6.998;2023-07-13T08:27:54;63.45;55.45;71.61;;
64996;Laerm;51545;51.568;6.998;2023-07-13T08:30:20;63.50;44.39;77.29;;
64996;Laerm;51545;51.568;6.998;2023-07-13T08:32:45;66.74;47.00;79.96;;
64996;Laerm;51545;51.568;6.998;2023-07-13T08:35:11;64.96;58.49;79.09;;
64996;Laerm;51545;51.568;6.998;2023-07-13T08:37:37;55.12;42.00;77.70;;
64996;Laerm;51545;51.568;6.998;2023-07-13T08:40:02;60.09;54.12;71.58;;
64996;Laerm;51545;51.568;6.998;2023-07-13T08:42:35;55.90;41.55;76.44;;
64996;Laerm;51545;51.568;6.998;2023-07-13T08:47:49;71.49;62.87;77.31;;
64996;Laerm;51545;51.568;6.998;2023-07-13T08:50:18;62.45;42.61;81.01;;
64996;Laerm;51545;51.568;6.998;2023-07-13T08:52:45;58.21;43.92;88.01;;
64996;Laerm;51545;51.568;6.998;2023-07-13T08:55:18;53.56;41.06;76.34;;
64996;Laerm;51545;51.568;6.998;2023-07-13T08:57:50;57.80;41.10;89.67;;
64996;Laerm;51545;51.568;6.998;2023-07-13T09:00:18;62.05;41.09;74.10;;
64996;Laerm;51545;51.568;6.998;2023-07-13T09:02:57;53.55;43.10;73.00;;
64996;Laerm;51545;51.568;6.998;2023-07-13T09:11:03;63.02;43.63;74.30;;
64996;Laerm;51545;51.568;6.998;2023-07-13T09:13:37;52.79;41.70;85.72;;
64996;Laerm;51545;51.568;6.998;2023-07-13T09:16:05;61.92;39.60;76.91;;
64996;Laerm;51545;51.568;6.998;2023-07-13T09:18:49;62.93;55.59;72.04;;
64996;Laerm;51545;51.568;6.998;2023-07-13T09:21:18;57.90;40.92;80.35;;
64996;Laerm;51545;51.568;6.998;2023-07-13T09:23:47;61.08;41.12;75.50;;
64996;Laerm;51545;51.568;6.998;2023-07-13T09:26:18;65.29;57.84;72.27;;
64996;Laerm;51545;51.568;6.998;2023-07-13T09:29:09;62.38;42.58;77.77;;
64996;Laerm;51545;51.568;6.998;2023-07-13T09:31:38;46.03;41.77;66.85;;
64996;Laerm;51545;51.568;6.998;2023-07-13T09:34:10;47.88;42.65;60.02;;
64996;Laerm;51545;51.568;6.998;2023-07-13T09:36:36;48.61;43.09;72.15;;
64996;Laerm;51545;51.568;6.998;2023-07-13T09:41:44;63.53;42.20;85.99;;
64996;Laerm;51545;51.568;6.998;2023-07-13T09:44:15;68.02;59.07;79.11;;
64996;Laerm;51545;51.568;6.998;2023-07-13T09:46:52;59.70;42.19;74.22;;
64996;Laerm;51545;51.568;6.998;2023-07-13T09:49:27;64.01;43.72;77.56;;
64996;Laerm;51545;51.568;6.998;2023-07-13T09:52:02;54.50;42.39;71.78;;
64996;Laerm;51545;51.568;6.998;2023-07-13T09:54:29;48.76;41.11;63.16;;
64996;Laerm;51545;51.568;6.998;2023-07-13T09:56:58;49.04;41.60;63.17;;
64996;Laerm;51545;51.568;6.998;2023-07-13T09:59:36;46.92;41.91;59.64;;
64996;Laerm;51545;51.568;6.998;2023-07-13T10:02:33;48.90;43.80;64.71;;
64996;Laerm;51545;51.568;6.998;2023-07-13T10:05:00;50.09;42.36;72.65;;
64996;Laerm;51545;51.568;6.998;2023-07-13T10:07:26;48.22;42.14;63.41;;
64996;Laerm;51545;51.568;6.998;2023-07-13T10:09:56;45.60;41.60;57.52;;
64996;Laerm;51545;51.568;6.998;2023-07-13T10:12:23;45.94;41.90;60.05;;
64996;Laerm;51545;51.568;6.998;2023-07-13T10:14:52;48.72;42.27;62.89;;
64996;Laerm;51545;51.568;6.998;2023-07-13T10:17:29;50.76;42.74;70.12;;
64996;Laerm;51545;51.568;6.998;2023-07-13T10:20:03;46.13;42.87;60.96;;
64996;Laerm;51545;51.568;6.998;2023-07-13T10:22:42;46.38;42.47;56.71;;
64996;Laerm;51545;51.568;6.998;2023-07-13T10:25:24;45.90;41.34;61.05;;
64996;Laerm;51545;51.568;6.998;2023-07-13T10:27:53;45.76;40.59;73.36;;
64996;Laerm;51545;51.568;6.998;2023-07-13T10:30:25;43.92;39.86;58.47;;
64996;Laerm;51545;51.568;6.998;2023-07-13T10:32:54;46.86;41.83;62.79;;
64996;Laerm;51545;51.568;6.998;2023-07-13T10:35:20;46.89;41.46;63.56;;
64996;Laerm;51545;51.568;6.998;2023-07-13T10:40:18;48.07;42.48;64.32;;
64996;Laerm;51545;51.568;6.998;2023-07-13T10:42:48;48.28;42.51;67.07;;
64996;Laerm;51545;51.568;6.998;2023-07-13T10:45:20;45.78;40.62;59.76;;
64996;Laerm;51545;51.568;6.998;2023-07-13T10:47:48;46.39;40.69;65.38;;
64996;Laerm;51545;51.568;6.998;2023-07-13T10:50:20;46.27;40.97;64.17;;
64996;Laerm;51545;51.568;6.998;2023-07-13T10:52:51;46.08;38.83;69.00;;
64996;Laerm;51545;51.568;6.998;2023-07-13T10:55:40;43.24;38.82;57.19;;
64996;Laerm;51545;51.568;6.998;2023-07-13T10:58:35;44.36;40.02;58.66;;
64996;Laerm;51545;51.568;6.998;2023-07-13T11:01:10;44.99;40.25;59.90;;
64996;Laerm;51545;51.568;6.998;2023-07-13T11:06:16;46.33;39.86;68.89;;
64996;Laerm;51545;51.568;6.998;2023-07-13T11:18:53;47.43;40.78;65.88;;
64996;Laerm;51545;51.568;6.998;2023-07-13T11:21:34;47.76;42.51;60.64;;
64996;Laerm;51545;51.568;6.998;2023-07-13T11:24:16;46.57;42.87;63.47;;
64996;Laerm;51545;51.568;6.998;2023-07-13T11:26:51;46.24;42.53;65.93;;
64996;Laerm;51545;51.568;6.998;2023-07-13T11:31:51;44.10;39.61;58.09;;
64996;Laerm;51545;51.568;6.998;2023-07-13T11:34:24;45.83;40.11;67.99;;
64996;Laerm;51545;51.568;6.998;2023-07-13T11:36:52;46.94;41.84;62.74;;
64996;Laerm;51545;51.568;6.998;2023-07-13T11:39:50;44.59;39.71;57.53;;
64996;Laerm;51545;51.568;6.998;2023-07-13T11:42:18;47.77;41.56;63.13;;
64996;Laerm;51545;51.568;6.998;2023-07-13T11:44:48;44.05;40.33;58.94;;
64996;Laerm;51545;51.568;6.998;2023-07-13T11:47:18;48.21;40.33;72.04;;
64996;Laerm;51545;51.568;6.998;2023-07-13T11:49:48;45.78;40.56;58.28;;
64996;Laerm;51545;51.568;6.998;2023-07-13T11:52:17;48.72;42.30;69.77;;
64996;Laerm;51545;51.568;6.998;2023-07-13T11:54:48;48.78;41.82;70.14;;
64996;Laerm;51545;51.568;6.998;2023-07-13T11:57:26;46.33;42.14;59.92;;
64996;Laerm;51545;51.568;6.998;2023-07-13T11:59:54;48.95;42.54;73.34;;
64996;Laerm;51545;51.568;6.998;2023-07-13T12:02:39;46.70;41.77;58.90;;
64996;Laerm;51545;51.568;6.998;2023-07-13T12:05:11;48.21;42.58;65.74;;
64996;Laerm;51545;51.568;6.998;2023-07-13T12:07:38;48.63;42.58;64.59;;
64996;Laerm;51545;51.568;6.998;2023-07-13T12:10:26;46.83;42.54;62.23;;
64996;Laerm;51545;51.568;6.998;2023-07-13T12:13:00;47.12;41.61;58.47;;
64996;Laerm;51545;51.568;6.998;2023-07-13T12:15:43;46.45;42.32;53.37;;
64996;Laerm;51545;51.568;6.998;2023-07-13T12:18:20;46.36;42.23;57.12;;
64996;Laerm;51545;51.568;6.998;2023-07-13T12:20:46;46.12;42.96;64.25;;
64996;Laerm;51545;51.568;6.998;2023-07-13T12:23:33;45.37;40.31;62.45;;
64996;Laerm;51545;51.568;6.998;2023-07-13T12:26:01;46.73;42.40;61.80;;
64996;Laerm;51545;51.568;6.998;2023-07-13T12:28:38;46.03;41.24;61.88;;
64996;Laerm;51545;51.568;6.998;2023-07-13T12:31:24;46.86;41.53;66.53;;
64996;Laerm;51545;51.568;6.998;2023-07-13T12:33:57;47.74;42.00;63.06;;
64996;Laerm;51545;51.568;6.998;2023-07-13T12:36:23;48.45;43.17;65.55;;
64996;Laerm;51545;51.568;6.998;2023-07-13T12:38:49;48.05;43.18;68.04;;
64996;Laerm;51545;51.568;6.998;2023-07-13T12:41:15;46.80;42.78;55.60;;
64996;Laerm;51545;51.568;6.998;2023-07-13T12:43:40;49.50;40.79;67.80;;
64996;Laerm;51545;51.568;6.998;2023-07-13T12:46:26;46.25;41.90;58.71;;
64996;Laerm;51545;51.568;6.998;2023-07-13T12:48:54;46.15;40.93;61.57;;
64996;Laerm;51545;51.568;6.998;2023-07-13T12:51:27;48.02;42.35;66.86;;
64996;Laerm;51545;51.568;6.998;2023-07-13T12:53:59;48.25;42.87;66.83;;
64996;Laerm;51545;51.568;6.998;2023-07-13T12:56:32;52.08;42.95;76.34;;
64996;Laerm;51545;51.568;6.998;2023-07-13T12:59:03;49.02;43.62;64.09;;
64996;Laerm;51545;51.568;6.998;2023-07-13T13:01:32;49.71;43.03;72.91;;
64996;Laerm;51545;51.568;6.998;2023-07-13T13:04:01;52.37;43.95;70.46;;
64996;Laerm;51545;51.568;6.998;2023-07-13T13:06:32;55.71;47.70;68.69;;
64996;Laerm;51545;51.568;6.998;2023-07-13T13:09:00;57.97;48.51;72.80;;
64996;Laerm;51545;51.568;6.998;2023-07-13T13:11:28;52.68;47.64;63.67;;
64996;Laerm;51545;51.568;6.998;2023-07-13T13:13:54;52.48;48.15;66.22;;
64996;Laerm;51545;51.568;6.998;2023-07-13T13:18:53;53.08;45.94;80.19;;
64996;Laerm;51545;51.568;6.998;2023-07-13T13:21:20;48.71;45.68;56.85;;
64996;Laerm;51545;51.568;6.998;2023-07-13T13:23:46;49.24;45.33;55.83;;
64996;Laerm;51545;51.568;6.998;2023-07-13T13:26:14;48.95;45.47;64.20;;
64996;Laerm;51545;51.568;6.998;2023-07-13T13:28:43;47.93;43.60;54.52;;
64996;Laerm;51545;51.568;6.998;2023-07-13T13:31:09;47.95;44.06;58.44;;
64996;Laerm;51545;51.568;6.998;2023-07-13T13:33:40;46.36;42.11;53.77;;
64996;Laerm;51545;51.568;6.998;2023-07-13T13:36:14;46.17;42.70;52.36;;
64996;Laerm;51545;51.568;6.998;2023-07-13T13:38:41;47.49;43.78;53.96;;
64996;Laerm;51545;51.568;6.998;2023-07-13T13:41:09;46.03;42.02;51.66;;
64996;Laerm;51545;51.568;6.998;2023-07-13T13:43:35;46.25;42.38;56.23;;
64996;Laerm;51545;51.568;6.998;2023-07-13T13:46:00;46.34;42.74;53.13;;
64996;Laerm;51545;51.568;6.998;2023-07-13T13:48:31;45.92;42.51;55.64;;
64996;Laerm;51545;51.568;6.998;2023-07-13T13:50:58;45.79;42.48;53.33;;
64996;Laerm;51545;51.568;6.998;2023-07-13T13:53:25;45.52;41.90;51.56;;
64996;Laerm;51545;51.568;6.998;2023-07-13T13:55:51;45.53;42.55;54.25;;
64996;Laerm;51545;51.568;6.998;2023-07-13T13:58:18;45.51;41.77;49.86;;
64996;Laerm;51545;51.568;6.998;2023-07-13T14:00:44;45.23;41.54;56.17;;
64996;Laerm;51545;51.568;6.998;2023-07-13T14:03:18;45.96;42.12;52.68;;
64996;Laerm;51545;51.568;6.998;2023-07-13T14:05:44;46.37;41.89;62.40;;
64996;Laerm;51545;51.568;6.998;2023-07-13T14:08:16;44.99;41.44;48.99;;
64996;Laerm;51545;51.568;6.998;2023-07-13T14:10:42;46.32;42.53;58.37;;
64996;Laerm;51545;51.568;6.998;2023-07-13T14:13:17;46.58;42.05;58.89;;
64996;Laerm;51545;51.568;6.998;2023-07-13T14:15:44;47.18;43.75;50.96;;
64996;Laerm;51545;51.568;6.998;2023-07-13T14:18:10;47.78;43.09;56.55;;
64996;Laerm;51545;51.568;6.998;2023-07-13T14:20:35;47.43;43.81;55.78;;
64996;Laerm;51545;51.568;6.998;2023-07-13T14:23:01;46.47;42.03;58.69;;
64996;Laerm;51545;51.568;6.998;2023-07-13T14:25:26;47.16;42.77;58.38;;